Time;durP1;ratioP1;P1;durP2;ratioP2;P2;SDS_P1;SDS_P2;PMS_P1;PMS_P2;Temp;Humidity;BMP_temperature;BMP_pressure;BME280_temperature;BME280_humidity;BME280_pressure;Samples;Min_cycle;Max_cycle;Signal;HPM_P1;HPM_P2
2021/07/17 00:00:46;;;;;;;;;;;;;;;23.39;54.89;102617.78;2208991;39;115472;-55
2021/07/17 00:02:18;;;;;;;;;;;;;;;23.38;54.81;102610.47;2211245;39;115459;-55
2021/07/17 00:03:50;;;;;;;;;;;;;;;23.39;54.61;102614.13;2203946;39;116016;-55
2021/07/17 00:05:23;;;;;;;;;;;;;;;23.40;54.45;102615.81;2208342;39;115531;-55
2021/07/17 00:06:55;;;;;;;;;;;;;;;23.40;54.66;102616.66;2210556;39;115692;-55
2021/07/17 00:08:27;;;;;;;;;;;;;;;23.40;54.66;102611.00;2207910;39;114625;-55
2021/07/17 00:09:58;;;;;;;;;;;;;;;23.41;54.54;102609.88;2207688;39;114524;-55
2021/07/17 00:11:30;;;;;;;;;;;;;;;23.40;54.46;102616.66;2210806;39;115643;-55
2021/07/17 00:13:02;;;;;;;;;;;;;;;23.41;54.89;102617.50;2211706;39;115471;-55
2021/07/17 00:14:34;;;;;;;;;;;;;;;23.40;54.96;102618.63;2213682;39;115551;-56
2021/07/17 00:16:05;;;;;;;;;;;;;;;23.39;54.91;102614.94;2208761;39;113649;-55
2021/07/17 00:17:37;;;;;;;;;;;;;;;23.40;55.22;102613.81;2208174;39;114509;-55
2021/07/17 00:19:09;;;;;;;;;;;;;;;23.41;54.81;102609.88;2209800;39;113938;-55
2021/07/17 00:20:42;;;;;;;;;;;;;;;23.42;54.85;102616.38;2210793;39;113543;-55
2021/07/17 00:22:13;;;;;;;;;;;;;;;23.45;54.94;102608.19;2205929;39;114710;-55
2021/07/17 00:23:45;;;;;;;;;;;;;;;23.45;54.96;102613.84;2209537;39;114827;-55
2021/07/17 00:25:18;;;;;;;;;;;;;;;23.44;55.11;102617.78;2211267;39;113605;-55
2021/07/17 00:26:50;;;;;;;;;;;;;;;23.46;55.13;102615.53;2211317;39;113740;-55
2021/07/17 00:28:22;;;;;;;;;;;;;;;23.45;55.06;102611.03;2210562;39;114037;-55
2021/07/17 00:29:54;;;;;;;;;;;;;;;23.45;55.18;102616.66;2208649;39;113670;-55
2021/07/17 00:31:25;;;;;;;;;;;;;;;23.47;55.44;102611.59;2210933;39;115870;-55
2021/07/17 00:32:57;;;;;;;;;;;;;;;23.47;55.28;102613.56;2210232;39;113874;-55
2021/07/17 00:34:29;;;;;;;;;;;;;;;23.47;55.31;102617.25;2211309;39;113848;-55
2021/07/17 00:36:01;;;;;;;;;;;;;;;23.47;55.19;102616.38;2211091;39;113732;-55
2021/07/17 00:37:33;;;;;;;;;;;;;;;23.46;55.22;102615.53;2213562;39;113942;-55
2021/07/17 00:39:05;;;;;;;;;;;;;;;23.46;55.42;102609.91;2213451;39;114830;-55
2021/07/17 00:40:37;;;;;;;;;;;;;;;23.46;55.38;102611.88;2211171;39;116011;-55
2021/07/17 00:42:09;;;;;;;;;;;;;;;23.47;55.31;102617.25;2206943;39;114817;-55
2021/07/17 00:43:41;;;;;;;;;;;;;;;23.47;55.39;102611.59;2208734;39;115379;-55
2021/07/17 00:45:13;;;;;;;;;;;;;;;23.48;55.51;102612.44;2204456;39;114844;-55
2021/07/17 00:46:45;;;;;;;;;;;;;;;23.47;55.50;102617.25;2209308;39;115686;-55
2021/07/17 00:48:17;;;;;;;;;;;;;;;23.48;55.33;102616.06;2211864;39;114918;-55
2021/07/17 00:49:48;;;;;;;;;;;;;;;23.49;55.50;102616.94;2211704;39;113830;-55
2021/07/17 00:51:23;;;;;;;;;;;;;;;23.48;55.04;102612.44;2211362;39;115279;-55
2021/07/17 00:52:55;;;;;;;;;;;;;;;23.48;55.16;102613.25;2203811;39;114423;-55
2021/07/17 00:54:28;;;;;;;;;;;;;;;23.48;55.25;102616.06;2209625;39;115063;-55
2021/07/17 00:56:06;;;;;;;;;;;;;;;23.52;55.46;102618.34;2211055;39;115135;-55
2021/07/17 00:57:39;;;;;;;;;;;;;;;23.49;55.21;102614.94;2205393;39;113955;-55
2021/07/17 00:59:12;;;;;;;;;;;;;;;23.51;55.41;102620.31;2213334;39;114342;-55
2021/07/17 01:00:45;;;;;;;;;;;;;;;23.51;55.52;102620.31;2207245;39;116253;-55
2021/07/17 01:02:18;;;;;;;;;;;;;;;23.52;55.47;102618.34;2210728;39;115790;-55
2021/07/17 01:03:50;;;;;;;;;;;;;;;23.54;55.23;102613.25;2210336;39;115706;-55
2021/07/17 01:05:22;;;;;;;;;;;;;;;23.53;55.41;102615.22;2211677;39;115688;-55
2021/07/17 01:06:56;;;;;;;;;;;;;;;23.53;55.24;102611.56;2204450;39;115052;-55
2021/07/17 01:08:27;;;;;;;;;;;;;;;23.52;55.08;102615.53;2208905;39;115462;-56
2021/07/17 01:09:59;;;;;;;;;;;;;;;23.52;55.31;102607.06;2208357;39;116498;-55
2021/07/17 01:11:31;;;;;;;;;;;;;;;23.53;55.14;102620.03;2210939;39;115532;-55
2021/07/17 01:13:04;;;;;;;;;;;;;;;23.51;55.36;102613.81;2211132;39;114619;-55
2021/07/17 01:14:36;;;;;;;;;;;;;;;23.50;55.11;102612.97;2205677;39;115590;-55
2021/07/17 01:16:08;;;;;;;;;;;;;;;23.51;55.07;102617.50;2209221;39;115746;-55
2021/07/17 01:17:40;;;;;;;;;;;;;;;23.53;55.08;102614.41;2211629;39;115665;-55
2021/07/17 01:19:12;;;;;;;;;;;;;;;23.53;55.37;102614.41;2206559;39;116074;-55
2021/07/17 01:20:45;;;;;;;;;;;;;;;23.53;55.27;102618.03;2214769;39;115532;-55
2021/07/17 01:22:18;;;;;;;;;;;;;;;23.54;55.23;102611.25;2213276;39;114060;-55
2021/07/17 01:23:51;;;;;;;;;;;;;;;23.55;55.21;102612.97;2209968;39;113703;-55
2021/07/17 01:25:25;;;;;;;;;;;;;;;23.55;55.05;102612.13;2206345;39;114137;-55
2021/07/17 01:26:57;;;;;;;;;;;;;;;23.55;55.37;102612.97;2210409;39;113900;-55
2021/07/17 01:28:28;;;;;;;;;;;;;;;23.55;54.89;102604.50;2203533;39;113881;-55
2021/07/17 01:30:01;;;;;;;;;;;;;;;23.52;55.07;102615.53;2209787;39;113655;-55
2021/07/17 01:31:33;;;;;;;;;;;;;;;23.53;55.18;102612.38;2211634;39;113811;-55
2021/07/17 01:33:06;;;;;;;;;;;;;;;23.52;54.95;102607.06;2211759;39;114322;-55
2021/07/17 01:34:38;;;;;;;;;;;;;;;23.52;55.32;102615.53;2204389;39;113566;-55
2021/07/17 01:36:10;;;;;;;;;;;;;;;23.51;55.33;102622.28;2213487;39;113978;-55
2021/07/17 01:37:41;;;;;;;;;;;;;;;23.52;55.03;102615.53;2204293;39;113690;-55
2021/07/17 01:39:13;;;;;;;;;;;;;;;23.49;55.05;102609.31;2209414;39;113689;-55
2021/07/17 01:40:48;;;;;;;;;;;;;;;23.49;54.95;102614.94;2211169;39;113977;-55
2021/07/17 01:42:20;;;;;;;;;;;;;;;23.49;55.00;102612.13;2213223;39;114173;-55
2021/07/17 01:43:55;;;;;;;;;;;;;;;23.49;55.35;102611.28;2210936;39;115808;-55
2021/07/17 01:45:30;;;;;;;;;;;;;;;23.49;55.53;102609.31;2211344;39;114733;-55
2021/07/17 01:47:02;;;;;;;;;;;;;;;23.49;55.30;102609.31;2211191;39;114773;-55
2021/07/17 01:48:34;;;;;;;;;;;;;;;23.51;55.31;102608.19;2208504;39;114921;-56
2021/07/17 01:50:08;;;;;;;;;;;;;;;23.49;55.10;102614.94;2208851;39;116298;-55
2021/07/17 01:51:39;;;;;;;;;;;;;;;23.50;55.21;102618.63;2210267;39;113848;-55
2021/07/17 01:53:13;;;;;;;;;;;;;;;23.49;55.37;102611.28;2208569;39;114753;-55
2021/07/17 01:54:45;;;;;;;;;;;;;;;23.49;55.54;102612.13;2211349;39;114946;-55
2021/07/17 01:56:17;;;;;;;;;;;;;;;23.49;55.16;102609.31;2210900;39;114822;-55
2021/07/17 01:57:49;;;;;;;;;;;;;;;23.51;55.50;102617.50;2211142;39;114061;-55
2021/07/17 01:59:21;;;;;;;;;;;;;;;23.49;55.21;102609.31;2206429;39;115050;-55
2021/07/17 02:00:52;;;;;;;;;;;;;;;23.51;55.41;102613.81;2208196;39;114960;-56
2021/07/17 02:02:24;;;;;;;;;;;;;;;23.49;55.74;102609.31;2208512;39;114880;-55
2021/07/17 02:03:56;;;;;;;;;;;;;;;23.53;55.61;102608.75;2214092;39;113865;-55
2021/07/17 02:05:29;;;;;;;;;;;;;;;23.54;55.60;102602.81;2211254;39;116099;-55
2021/07/17 02:07:01;;;;;;;;;;;;;;;23.51;55.39;102606.22;2210602;39;115486;-55
2021/07/17 02:08:34;;;;;;;;;;;;;;;23.53;55.54;102606.75;2205198;39;115489;-55
2021/07/17 02:10:10;;;;;;;;;;;;;;;23.53;55.49;102611.56;2207048;39;115567;-55
2021/07/17 02:11:41;;;;;;;;;;;;;;;23.53;55.63;102603.13;2208317;39;115514;-55
2021/07/17 02:13:14;;;;;;;;;;;;;;;23.53;55.46;102603.13;2210330;39;115466;-55
2021/07/17 02:14:49;;;;;;;;;;;;;;;23.54;55.73;102610.41;2210685;39;116792;-55
2021/07/17 02:16:21;;;;;;;;;;;;;;;23.54;55.81;102610.41;2207469;39;115743;-55
2021/07/17 02:17:53;;;;;;;;;;;;;;;23.52;55.52;102607.06;2212933;39;115465;-55
2021/07/17 02:19:25;;;;;;;;;;;;;;;23.52;55.68;102601.41;2207899;39;115503;-55
2021/07/17 02:20:56;;;;;;;;;;;;;;;23.54;55.75;102604.78;2207243;39;114965;-55
2021/07/17 02:22:28;;;;;;;;;;;;;;;23.54;55.97;102608.44;2211255;39;115428;-55
2021/07/17 02:24:00;;;;;;;;;;;;;;;23.54;55.56;102607.59;2210565;39;114668;-55
2021/07/17 02:25:32;;;;;;;;;;;;;;;23.53;55.54;102601.09;2207516;39;115521;-55
2021/07/17 02:27:04;;;;;;;;;;;;;;;23.55;55.83;102604.50;2212777;39;114791;-55
2021/07/17 02:28:36;;;;;;;;;;;;;;;23.51;55.70;102597.75;2211648;39;113767;-55
2021/07/17 02:30:09;;;;;;;;;;;;;;;23.54;55.97;102597.16;2217471;39;113825;-55
2021/07/17 02:31:41;;;;;;;;;;;;;;;23.55;55.86;102604.50;2213404;39;113643;-55
2021/07/17 02:33:13;;;;;;;;;;;;;;;23.56;55.83;102597.72;2211355;39;114187;-56
2021/07/17 02:34:45;;;;;;;;;;;;;;;23.59;56.04;102602.78;2210636;39;113740;-55
2021/07/17 02:36:17;;;;;;;;;;;;;;;23.58;55.92;102597.41;2211118;39;113809;-55
2021/07/17 02:37:49;;;;;;;;;;;;;;;23.57;55.76;102599.44;2215310;39;113974;-55
2021/07/17 02:39:21;;;;;;;;;;;;;;;23.55;55.86;102598.00;2208993;39;114392;-55
2021/07/17 02:40:52;;;;;;;;;;;;;;;23.55;55.56;102606.47;2207834;39;114828;-55
2021/07/17 02:42:24;;;;;;;;;;;;;;;23.52;55.72;102607.06;2210662;39;113795;-55
2021/07/17 02:43:56;;;;;;;;;;;;;;;23.53;55.84;102606.75;2208806;39;113868;-55
2021/07/17 02:45:28;;;;;;;;;;;;;;;23.56;55.92;102608.16;2211265;39;113644;-56
2021/07/17 02:47:00;;;;;;;;;;;;;;;23.54;55.79;102604.78;2210520;39;114075;-55
2021/07/17 02:48:31;;;;;;;;;;;;;;;23.55;55.80;102600.81;2211531;39;113773;-55
2021/07/17 02:50:04;;;;;;;;;;;;;;;23.54;55.74;102596.31;2207946;39;115114;-55
2021/07/17 02:51:36;;;;;;;;;;;;;;;23.52;55.84;102595.78;2214976;39;114858;-55
2021/07/17 02:53:08;;;;;;;;;;;;;;;23.52;55.75;102601.41;2210682;39;115795;-55
2021/07/17 02:54:39;;;;;;;;;;;;;;;23.51;55.77;102600.56;2202528;39;115226;-55
2021/07/17 02:56:11;;;;;;;;;;;;;;;23.53;55.53;102605.94;2211005;39;114774;-55
2021/07/17 02:57:43;;;;;;;;;;;;;;;23.54;55.64;102599.97;2210996;39;114822;-55
2021/07/17 02:59:15;;;;;;;;;;;;;;;23.54;55.58;102604.78;2210411;39;114285;-56
2021/07/17 03:00:53;;;;;;;;;;;;;;;23.53;55.66;102601.09;2209458;39;114937;-55
2021/07/17 03:02:25;;;;;;;;;;;;;;;23.54;55.52;102607.59;2205001;39;114268;-55
2021/07/17 03:03:57;;;;;;;;;;;;;;;23.52;55.57;102601.41;2211378;39;115028;-55
2021/07/17 03:05:29;;;;;;;;;;;;;;;23.51;55.73;102602.53;2211787;39;114801;-55
2021/07/17 03:07:01;;;;;;;;;;;;;;;23.51;55.52;102603.38;2211467;39;114766;-55
2021/07/17 03:08:33;;;;;;;;;;;;;;;23.50;55.70;102601.69;2211131;39;114974;-55
2021/07/17 03:10:05;;;;;;;;;;;;;;;23.53;55.75;102597.47;2213944;39;114131;-55
2021/07/17 03:11:36;;;;;;;;;;;;;;;23.53;56.00;102603.94;2203947;39;115900;-55
2021/07/17 03:13:08;;;;;;;;;;;;;;;23.53;56.03;102603.13;2208935;39;116709;-55
2021/07/17 03:14:40;;;;;;;;;;;;;;;23.51;55.83;102596.91;2210448;39;115131;-55
2021/07/17 03:16:12;;;;;;;;;;;;;;;23.53;55.73;102608.75;2204898;39;115601;-55
2021/07/17 03:17:44;;;;;;;;;;;;;;;23.51;55.78;102600.56;2207748;39;115476;-55
2021/07/17 03:19:16;;;;;;;;;;;;;;;23.53;55.97;102603.13;2206045;39;115460;-55
2021/07/17 03:20:48;;;;;;;;;;;;;;;23.49;55.64;102605.63;2210952;39;116011;-55
2021/07/17 03:22:22;;;;;;;;;;;;;;;23.49;55.85;102605.63;2208490;39;116150;-55
2021/07/17 03:23:53;;;;;;;;;;;;;;;23.50;55.93;102604.50;2213404;39;115721;-55
2021/07/17 03:25:25;;;;;;;;;;;;;;;23.51;55.91;102606.22;2210567;39;115381;-55
2021/07/17 03:26:57;;;;;;;;;;;;;;;23.52;55.90;102604.25;2210475;39;115843;-55
2021/07/17 03:28:29;;;;;;;;;;;;;;;23.53;56.18;102603.94;2211159;39;115826;-55
2021/07/17 03:30:01;;;;;;;;;;;;;;;23.51;56.06;102605.38;2209527;39;115421;-55
2021/07/17 03:31:33;;;;;;;;;;;;;;;23.51;56.02;102614.69;2208416;39;115473;-56
2021/07/17 03:33:05;;;;;;;;;;;;;;;23.51;56.00;102611.84;2210740;39;114005;-56
2021/07/17 03:34:37;;;;;;;;;;;;;;;23.51;56.17;102609.03;2211365;39;113787;-55
2021/07/17 03:36:09;;;;;;;;;;;;;;;23.49;56.12;102614.09;2210252;39;113786;-55
2021/07/17 03:37:40;;;;;;;;;;;;;;;23.49;56.34;102606.50;2209413;39;113748;-55
2021/07/17 03:39:12;;;;;;;;;;;;;;;23.48;56.23;102606.81;2218116;39;113668;-55
2021/07/17 03:40:44;;;;;;;;;;;;;;;23.48;56.07;102607.63;2213319;39;113605;-55
2021/07/17 03:42:16;;;;;;;;;;;;;;;23.48;56.48;102607.63;2211135;39;114125;-55
2021/07/17 03:43:47;;;;;;;;;;;;;;;23.49;56.30;102605.63;2210411;39;113791;-55
2021/07/17 03:45:19;;;;;;;;;;;;;;;23.49;56.30;102602.81;2210981;39;113616;-55
2021/07/17 03:46:52;;;;;;;;;;;;;;;23.49;56.49;102620.59;2203247;39;113915;-55
2021/07/17 03:48:24;;;;;;;;;;;;;;;23.49;56.34;102614.94;2205511;39;113690;-55
2021/07/17 03:49:55;;;;;;;;;;;;;;;23.52;56.47;102609.88;2208990;39;113968;-55
2021/07/17 03:51:27;;;;;;;;;;;;;;;23.51;56.55;102611.84;2210321;39;113828;-55
2021/07/17 03:52:59;;;;;;;;;;;;;;;23.50;56.64;102624.25;2210217;39;113931;-55
2021/07/17 03:54:31;;;;;;;;;;;;;;;23.50;56.69;102610.16;2213943;39;114485;-55
2021/07/17 03:56:03;;;;;;;;;;;;;;;23.47;56.65;102614.41;2210809;39;114874;-55
2021/07/17 03:57:35;;;;;;;;;;;;;;;23.50;56.91;102615.81;2209629;39;115236;-55
2021/07/17 03:59:07;;;;;;;;;;;;;;;23.52;56.53;102621.16;2214788;39;114285;-55
2021/07/17 04:00:38;;;;;;;;;;;;;;;23.54;56.73;102618.88;2210210;39;114859;-55
2021/07/17 04:02:10;;;;;;;;;;;;;;;23.52;56.73;102612.69;2206471;39;116388;-55
2021/07/17 04:03:45;;;;;;;;;;;;;;;23.52;56.63;102609.88;2211070;39;115084;-55
2021/07/17 04:05:19;;;;;;;;;;;;;;;23.52;56.64;102615.53;2210083;39;115052;-55
2021/07/17 04:06:51;;;;;;;;;;;;;;;23.49;56.81;102617.78;2209888;39;114840;-55
2021/07/17 04:08:22;;;;;;;;;;;;;;;23.49;56.71;102626.25;2210728;39;114614;-55
2021/07/17 04:09:54;;;;;;;;;;;;;;;23.48;56.80;102624.53;2207957;39;114846;-55
2021/07/17 04:11:26;;;;;;;;;;;;;;;23.48;56.92;102624.53;2208791;39;114146;-55
2021/07/17 04:12:58;;;;;;;;;;;;;;;23.50;56.69;102621.44;2206030;39;114730;-55
2021/07/17 04:14:29;;;;;;;;;;;;;;;23.52;56.79;102626.81;2206699;39;115053;-55
2021/07/17 04:16:01;;;;;;;;;;;;;;;23.49;56.90;102625.38;2213056;39;114997;-55
2021/07/17 04:17:33;;;;;;;;;;;;;;;23.51;56.75;102619.47;2209505;39;115423;-55
2021/07/17 04:19:05;;;;;;;;;;;;;;;23.49;56.97;102626.25;2206019;39;114632;-55
2021/07/17 04:20:37;;;;;;;;;;;;;;;23.47;56.87;102622.88;2211296;39;114484;-55
2021/07/17 04:22:09;;;;;;;;;;;;;;;23.50;56.79;102632.72;2210680;39;115743;-55
2021/07/17 04:23:41;;;;;;;;;;;;;;;23.51;56.84;102627.94;2210146;39;115585;-55
2021/07/17 04:25:13;;;;;;;;;;;;;;;23.53;56.77;102639.78;2210121;39;115618;-55
2021/07/17 04:26:45;;;;;;;;;;;;;;;23.50;56.58;102632.72;2206236;39;115458;-55
2021/07/17 04:28:16;;;;;;;;;;;;;;;23.49;56.70;102640.34;2210222;39;115627;-55
2021/07/17 04:29:48;;;;;;;;;;;;;;;23.51;56.93;102645.72;2210731;39;115908;-56
2021/07/17 04:31:21;;;;;;;;;;;;;;;23.49;56.74;102637.53;2210180;39;115940;-55
2021/07/17 04:32:52;;;;;;;;;;;;;;;23.55;56.74;102637.50;2210727;39;115694;-56
2021/07/17 04:34:30;;;;;;;;;;;;;;;23.49;56.69;102640.34;2209402;39;115877;-55
2021/07/17 04:36:01;;;;;;;;;;;;;;;23.49;56.69;102631.88;2210595;39;115597;-55
2021/07/17 04:37:33;;;;;;;;;;;;;;;23.49;56.64;102633.84;2213081;39;115518;-55
2021/07/17 04:39:05;;;;;;;;;;;;;;;23.54;56.31;102630.16;2212680;39;113845;-55
2021/07/17 04:40:37;;;;;;;;;;;;;;;23.49;56.64;102636.69;2211360;39;113716;-55
2021/07/17 04:42:09;;;;;;;;;;;;;;;23.52;56.50;102635.28;2210581;39;113813;-55
2021/07/17 04:43:41;;;;;;;;;;;;;;;23.47;56.49;102639.81;2209232;39;113861;-55
2021/07/17 04:45:13;;;;;;;;;;;;;;;23.46;56.58;102635.28;2204261;39;116244;-55
2021/07/17 04:46:44;;;;;;;;;;;;;;;23.48;56.45;102640.66;2201668;39;113960;-55
2021/07/17 04:48:16;;;;;;;;;;;;;;;23.48;56.71;102638.66;2209290;39;113967;-55
2021/07/17 04:49:48;;;;;;;;;;;;;;;23.48;56.49;102635.81;2210214;39;113749;-55
2021/07/17 04:51:19;;;;;;;;;;;;;;;23.48;56.74;102635.00;2208997;39;113770;-55
2021/07/17 04:52:51;;;;;;;;;;;;;;;23.50;56.64;102641.19;2211429;39;114378;-55
2021/07/17 04:54:23;;;;;;;;;;;;;;;23.46;56.34;102640.09;2211930;39;113985;-56
2021/07/17 04:55:54;;;;;;;;;;;;;;;23.47;56.49;102647.44;2210286;39;114179;-55
2021/07/17 04:57:26;;;;;;;;;;;;;;;23.48;57.00;102638.66;2211256;39;113631;-55
2021/07/17 04:58:58;;;;;;;;;;;;;;;23.44;56.60;102640.34;2213064;39;113666;-55
2021/07/17 05:00:29;;;;;;;;;;;;;;;23.45;56.69;102642.06;2208380;39;113943;-56
2021/07/17 05:02:02;;;;;;;;;;;;;;;23.45;56.52;102641.22;2211218;39;116955;-55
2021/07/17 05:03:35;;;;;;;;;;;;;;;23.45;56.38;102642.06;2211161;39;114835;-55
2021/07/17 05:05:07;;;;;;;;;;;;;;;23.43;56.64;102646.28;2207404;39;114548;-55
2021/07/17 05:06:39;;;;;;;;;;;;;;;23.48;56.89;102646.31;2210846;39;114116;-55
2021/07/17 05:08:11;;;;;;;;;;;;;;;23.48;56.78;102643.47;2210332;39;114823;-55
2021/07/17 05:09:42;;;;;;;;;;;;;;;23.44;56.71;102646.00;2209814;39;115011;-55
2021/07/17 05:11:14;;;;;;;;;;;;;;;23.44;56.63;102654.47;2214479;39;114996;-55
2021/07/17 05:12:46;;;;;;;;;;;;;;;23.44;56.85;102657.28;2213451;39;114822;-55
2021/07/17 05:14:17;;;;;;;;;;;;;;;23.44;57.05;102648.81;2210527;39;115032;-56
2021/07/17 05:15:49;;;;;;;;;;;;;;;23.43;56.69;102658.41;2211014;39;114214;-56
2021/07/17 05:17:21;;;;;;;;;;;;;;;23.43;56.86;102660.38;2204527;39;114624;-55
2021/07/17 05:18:52;;;;;;;;;;;;;;;23.45;56.81;102658.97;2210732;39;114205;-55
2021/07/17 05:20:24;;;;;;;;;;;;;;;23.44;56.79;102656.44;2213368;39;113822;-56
2021/07/17 05:21:56;;;;;;;;;;;;;;;23.43;57.00;102664.06;2206777;39;114889;-55
2021/07/17 05:23:28;;;;;;;;;;;;;;;23.43;56.57;102657.56;2206348;39;115658;-55
2021/07/17 05:25:00;;;;;;;;;;;;;;;23.42;56.98;102658.69;2213902;39;115614;-55
2021/07/17 05:26:32;;;;;;;;;;;;;;;23.43;56.78;102655.59;2210313;39;115496;-55
2021/07/17 05:28:05;;;;;;;;;;;;;;;23.45;56.74;102655.31;2210405;39;115927;-55
2021/07/17 05:29:36;;;;;;;;;;;;;;;23.45;56.73;102663.78;2206530;39;115741;-55
2021/07/17 05:31:08;;;;;;;;;;;;;;;23.45;56.63;102663.78;2211155;39;115671;-55
2021/07/17 05:32:40;;;;;;;;;;;;;;;23.44;56.52;102660.09;2211270;39;115534;-55
2021/07/17 05:34:12;;;;;;;;;;;;;;;23.46;56.82;102663.50;2203913;39;115827;-55
2021/07/17 05:35:43;;;;;;;;;;;;;;;23.46;56.69;102663.50;2209095;39;115546;-55
2021/07/17 05:37:15;;;;;;;;;;;;;;;23.44;56.39;102662.94;2209210;39;115639;-55
2021/07/17 05:38:47;;;;;;;;;;;;;;;23.43;56.57;102660.38;2212187;39;115891;-55
2021/07/17 05:40:18;;;;;;;;;;;;;;;23.43;56.63;102655.59;2211536;39;116045;-55
2021/07/17 05:41:50;;;;;;;;;;;;;;;23.41;56.79;102657.84;2211117;39;114517;-55
2021/07/17 05:43:22;;;;;;;;;;;;;;;23.41;56.42;102655.03;2210824;39;115115;-55
2021/07/17 05:44:54;;;;;;;;;;;;;;;23.42;56.56;102662.34;2209665;39;114247;-55
2021/07/17 05:46:25;;;;;;;;;;;;;;;23.43;56.58;102654.75;2210731;39;113817;-55
2021/07/17 05:47:57;;;;;;;;;;;;;;;23.42;56.62;102650.22;2208682;39;113819;-55
2021/07/17 05:49:29;;;;;;;;;;;;;;;23.42;56.62;102659.53;2211248;39;114099;-55
2021/07/17 05:51:00;;;;;;;;;;;;;;;23.42;56.63;102659.53;2212002;39;113738;-55
2021/07/17 05:52:32;;;;;;;;;;;;;;;23.40;56.54;102655.28;2211072;39;114535;-57
2021/07/17 05:54:04;;;;;;;;;;;;;;;23.39;56.57;102656.44;2213458;39;113656;-55
2021/07/17 05:55:35;;;;;;;;;;;;;;;23.39;56.60;102660.09;2210933;39;113834;-55
2021/07/17 05:57:08;;;;;;;;;;;;;;;23.42;56.73;102661.50;2209317;39;113757;-55
2021/07/17 05:58:39;;;;;;;;;;;;;;;23.41;56.51;102663.47;2211586;39;113761;-55
2021/07/17 06:00:13;;;;;;;;;;;;;;;23.41;56.64;102657.00;2210864;39;113898;-55
2021/07/17 06:01:45;;;;;;;;;;;;;;;23.42;56.88;102658.69;2211317;39;113743;-55
2021/07/17 06:03:17;;;;;;;;;;;;;;;23.43;56.26;102660.38;2207163;39;113720;-55
2021/07/17 06:04:49;;;;;;;;;;;;;;;23.41;56.39;102660.66;2212223;39;116215;-55
2021/07/17 06:06:20;;;;;;;;;;;;;;;23.43;57.01;102654.75;2209983;39;114756;-55
2021/07/17 06:07:52;;;;;;;;;;;;;;;23.41;56.51;102660.66;2211609;39;115129;-55
2021/07/17 06:09:24;;;;;;;;;;;;;;;23.41;56.43;102662.63;2210437;39;114853;-55
2021/07/17 06:10:56;;;;;;;;;;;;;;;23.38;56.65;102666.03;2211712;39;114702;-55
2021/07/17 06:12:27;;;;;;;;;;;;;;;23.40;56.68;102660.94;2210905;39;114518;-55
2021/07/17 06:13:59;;;;;;;;;;;;;;;23.42;56.69;102656.72;2209727;39;113821;-55
2021/07/17 06:15:31;;;;;;;;;;;;;;;23.40;56.56;102661.78;2211314;39;115215;-55
2021/07/17 06:17:03;;;;;;;;;;;;;;;23.41;56.68;102663.47;2210886;39;113915;-55
2021/07/17 06:18:35;;;;;;;;;;;;;;;23.45;56.60;102658.97;2205736;39;114612;-55
2021/07/17 06:20:07;;;;;;;;;;;;;;;23.39;56.68;102665.72;2210988;39;114580;-55
2021/07/17 06:21:39;;;;;;;;;;;;;;;23.38;56.60;102664.06;2211365;39;114321;-55
2021/07/17 06:23:11;;;;;;;;;;;;;;;23.39;56.78;102664.91;2202998;39;114945;-55
2021/07/17 06:24:42;;;;;;;;;;;;;;;23.38;56.72;102664.06;2208799;39;114207;-55
2021/07/17 06:26:14;;;;;;;;;;;;;;;23.37;56.76;102668.00;2205770;39;114868;-55
2021/07/17 06:27:46;;;;;;;;;;;;;;;23.38;56.72;102664.06;2208505;39;114909;-55
2021/07/17 06:29:17;;;;;;;;;;;;;;;23.39;56.76;102667.72;2210936;39;115685;-55
2021/07/17 06:30:49;;;;;;;;;;;;;;;23.39;56.80;102668.56;2207677;39;115565;-55
2021/07/17 06:32:21;;;;;;;;;;;;;;;23.40;56.70;102656.16;2210629;39;114750;-55
2021/07/17 06:33:53;;;;;;;;;;;;;;;23.41;56.35;102659.81;2210543;39;115439;-55
2021/07/17 06:35:25;;;;;;;;;;;;;;;23.37;56.88;102658.69;2205031;39;114665;-55
2021/07/17 06:36:56;;;;;;;;;;;;;;;23.38;56.57;102666.88;2208541;39;115464;-55
2021/07/17 06:38:28;;;;;;;;;;;;;;;23.38;56.60;102669.72;2210876;39;115665;-55
2021/07/17 06:40:00;;;;;;;;;;;;;;;23.39;56.68;102662.09;2211907;39;116192;-55
2021/07/17 06:41:31;;;;;;;;;;;;;;;23.38;56.68;102668.84;2211773;39;115676;-55
2021/07/17 06:43:03;;;;;;;;;;;;;;;23.39;56.38;102664.91;2206019;39;116226;-55
2021/07/17 06:44:35;;;;;;;;;;;;;;;23.38;56.63;102666.88;2208133;39;116210;-55
2021/07/17 06:46:07;;;;;;;;;;;;;;;23.41;56.42;102668.28;2210645;39;114578;-55
2021/07/17 06:47:38;;;;;;;;;;;;;;;23.38;56.41;102664.06;2207379;39;115677;-55
2021/07/17 06:49:10;;;;;;;;;;;;;;;23.41;56.80;102669.13;2209406;39;113806;-55
2021/07/17 06:50:43;;;;;;;;;;;;;;;23.40;56.66;102672.22;2210181;39;113563;-55
2021/07/17 06:52:15;;;;;;;;;;;;;;;23.39;56.64;102665.72;2208829;39;114761;-55
2021/07/17 06:53:46;;;;;;;;;;;;;;;23.41;56.76;102666.31;2211276;39;114082;-56
2021/07/17 06:55:18;;;;;;;;;;;;;;;23.38;56.65;102664.06;2210976;39;113681;-55
2021/07/17 06:56:50;;;;;;;;;;;;;;;23.40;56.92;102667.44;2210936;39;113600;-55
2021/07/17 06:58:22;;;;;;;;;;;;;;;23.38;56.81;102671.69;2210359;39;113884;-55
2021/07/17 06:59:54;;;;;;;;;;;;;;;23.42;57.32;102678.44;2210459;39;113894;-55
2021/07/17 07:01:25;;;;;;;;;;;;;;;23.36;56.76;102676.75;2210782;39;113983;-55
2021/07/17 07:02:57;;;;;;;;;;;;;;;23.35;56.63;102675.91;2210570;39;113775;-55
2021/07/17 07:04:29;;;;;;;;;;;;;;;23.33;56.54;102681.00;2210935;39;114070;-55
2021/07/17 07:06:02;;;;;;;;;;;;;;;23.35;56.63;102670.25;2211072;39;113850;-55
2021/07/17 07:07:34;;;;;;;;;;;;;;;23.39;56.51;102679.03;2211432;39;113763;-55
2021/07/17 07:09:05;;;;;;;;;;;;;;;23.35;56.60;102681.53;2211258;39;113774;-55
2021/07/17 07:10:37;;;;;;;;;;;;;;;23.34;56.54;102679.88;2213708;39;113898;-55
2021/07/17 07:12:09;;;;;;;;;;;;;;;23.37;56.65;102682.13;2211394;39;113708;-56
2021/07/17 07:13:41;;;;;;;;;;;;;;;23.39;56.61;102688.31;2211057;39;114843;-55
2021/07/17 07:15:13;;;;;;;;;;;;;;;23.38;56.65;102686.63;2211364;39;114904;-55
2021/07/17 07:16:44;;;;;;;;;;;;;;;23.36;56.42;102690.84;2215742;39;115072;-55
2021/07/17 07:18:16;;;;;;;;;;;;;;;23.38;56.76;102691.44;2212710;39;114878;-55
2021/07/17 07:19:48;;;;;;;;;;;;;;;23.38;56.78;102695.09;2211364;39;115395;-55
2021/07/17 07:21:21;;;;;;;;;;;;;;;23.39;57.00;102696.75;2211360;39;114823;-55
2021/07/17 07:22:53;;;;;;;;;;;;;;;23.39;56.57;102685.47;2210373;39;114692;-55
2021/07/17 07:24:25;;;;;;;;;;;;;;;23.37;56.96;102689.72;2211254;39;114862;-55
2021/07/17 07:25:56;;;;;;;;;;;;;;;23.38;56.82;102702.72;2216666;39;114898;-55
2021/07/17 07:27:28;;;;;;;;;;;;;;;23.38;57.17;102697.06;2207048;39;115211;-55
2021/07/17 07:29:00;;;;;;;;;;;;;;;23.37;56.92;102698.19;2211039;39;114041;-55
2021/07/17 07:30:32;;;;;;;;;;;;;;;23.36;56.82;102705.81;2210541;39;114895;-55
2021/07/17 07:32:04;;;;;;;;;;;;;;;23.36;56.74;102704.97;2213986;39;115583;-56
2021/07/17 07:33:36;;;;;;;;;;;;;;;23.35;57.12;102704.09;2216526;39;115558;-55
2021/07/17 07:35:08;;;;;;;;;;;;;;;23.36;57.35;102711.44;2209558;39;115305;-55
2021/07/17 07:36:40;;;;;;;;;;;;;;;23.35;57.31;102709.75;2208464;39;115052;-55
2021/07/17 07:38:11;;;;;;;;;;;;;;;23.39;57.27;102704.41;2208203;39;115511;-55
2021/07/17 07:39:43;;;;;;;;;;;;;;;23.39;57.22;102708.03;2211171;39;114551;-55
2021/07/17 07:41:19;;;;;;;;;;;;;;;23.37;57.12;102701.84;2213181;39;116235;-55
2021/07/17 07:42:51;;;;;;;;;;;;;;;23.38;57.13;102703.56;2211164;39;115498;-55
2021/07/17 07:44:23;;;;;;;;;;;;;;;23.40;57.14;102701.28;2211501;39;115890;-55
2021/07/17 07:45:55;;;;;;;;;;;;;;;23.42;57.06;102703.81;2210223;39;115547;-55
2021/07/17 07:47:26;;;;;;;;;;;;;;;23.38;56.90;102703.56;2210611;39;114525;-55